createdAt,value
2023-03-01T00:00:02.736Z,45.58
2023-03-01T00:01:08.733Z,52.53
2023-03-01T00:02:14.185Z,47.55
2023-03-01T00:04:40.077Z,51.70
2023-03-01T00:05:50.256Z,45.92
2023-03-01T00:06:56.626Z,48.40
2023-03-01T00:07:59.772Z,45.55
2023-03-01T00:09:01.989Z,49.80
2023-03-01T00:10:06.112Z,41.28
2023-03-01T00:11:29.271Z,49.67
2023-03-01T00:12:33.586Z,46.95
2023-03-01T00:13:40.060Z,43.65
2023-03-01T00:14:44.457Z,42.25
2023-03-01T00:15:50.698Z,40.40
2023-03-01T00:16:55.203Z,48.53
2023-03-01T00:17:58.392Z,43.45
2023-03-01T00:19:02.017Z,48.60
2023-03-01T00:20:05.460Z,44.75
2023-03-01T00:21:08.913Z,44.38
2023-03-01T00:22:11.517Z,38.97
2023-03-01T00:23:15.528Z,41.28
2023-03-01T00:24:18.582Z,37.47
2023-03-01T00:25:21.371Z,43.28
2023-03-01T00:26:25.273Z,35.08
2023-03-01T00:27:28.865Z,37.25
2023-03-01T00:28:33.269Z,36.65
2023-03-01T00:29:36.176Z,43.65
2023-03-01T00:30:38.644Z,41.45
2023-03-01T00:31:41.034Z,43.20
2023-03-01T00:32:43.454Z,46.50
2023-03-01T00:33:46.667Z,41.60
2023-03-01T00:34:57.932Z,35.17
2023-03-01T00:36:13.543Z,35.58
2023-03-01T00:37:15.380Z,32.83
2023-03-01T00:38:22.973Z,31.02
2023-03-01T00:39:24.915Z,37.30
2023-03-01T00:40:29.349Z,39.97
2023-03-01T00:41:32.356Z,40.85
2023-03-01T00:42:34.719Z,46.58
2023-03-01T00:43:44.581Z,39.55
2023-03-01T00:44:46.922Z,43.33
2023-03-01T00:45:51.642Z,41.33
2023-03-01T00:46:54.698Z,37.53
2023-03-01T00:48:03.558Z,39.55
2023-03-01T00:49:07.204Z,38.13
2023-03-01T00:50:12.211Z,36.38
2023-03-01T00:51:26.972Z,38.25
2023-03-01T00:52:29.544Z,33.65
2023-03-01T00:53:32.212Z,39.70
2023-03-01T00:54:34.853Z,39.58
2023-03-01T00:55:41.031Z,39.78
2023-03-01T00:56:44.351Z,39.53
2023-03-01T00:57:48.328Z,37.80
2023-03-01T00:58:52.022Z,40.33
2023-03-01T00:59:59.306Z,40.30
2023-03-01T01:01:24.694Z,50.90
2023-03-01T01:02:31.313Z,38.25
2023-03-01T01:03:34.120Z,40.40
2023-03-01T01:04:37.342Z,36.28
2023-03-01T01:05:39.507Z,36.38
2023-03-01T01:06:47.435Z,36.83
2023-03-01T01:07:50.079Z,33.35
2023-03-01T01:08:56.731Z,29.67
2023-03-01T01:09:59.814Z,35.22
2023-03-01T01:11:03.771Z,38.67
2023-03-01T01:12:06.000Z,33.70
2023-03-01T01:13:09.840Z,33.20
2023-03-01T01:14:12.397Z,32.28
2023-03-01T01:15:18.911Z,31.50
2023-03-01T01:16:23.952Z,30.38
2023-03-01T01:17:36.296Z,30.88
2023-03-01T01:18:39.258Z,33.53
2023-03-01T01:19:42.236Z,30.90
2023-03-01T01:20:48.388Z,35.40
2023-03-01T01:21:50.605Z,31.13
2023-03-01T01:22:57.314Z,31.83
2023-03-01T01:24:01.165Z,36.13
2023-03-01T01:25:11.284Z,34.78
2023-03-01T01:26:16.905Z,33.00
2023-03-01T01:27:19.183Z,37.00
2023-03-01T01:28:24.661Z,38.30
2023-03-01T01:29:32.572Z,36.05
2023-03-01T01:30:34.910Z,35.67
2023-03-01T01:31:42.034Z,37.38
2023-03-01T01:32:48.831Z,38.65
2023-03-01T01:33:51.655Z,35.45
2023-03-01T01:34:59.859Z,39.83
2023-03-01T01:36:08.052Z,35.75
2023-03-01T01:37:10.337Z,34.40
2023-03-01T01:38:14.128Z,35.63
2023-03-01T01:39:17.446Z,34.40
2023-03-01T01:40:21.365Z,40.05
2023-03-01T01:41:27.654Z,34.97
2023-03-01T01:42:31.886Z,38.65
2023-03-01T01:45:48.816Z,32.67
2023-03-01T01:47:02.329Z,35.83
2023-03-01T01:48:16.298Z,37.85
2023-03-01T01:49:45.064Z,39.90
2023-03-01T01:50:57.175Z,37.53
2023-03-01T01:52:28.224Z,42.75
2023-03-01T01:53:30.657Z,39.88
2023-03-01T01:55:11.947Z,45.05
2023-03-01T01:56:15.838Z,38.75
2023-03-01T01:57:24.685Z,38.55
2023-03-01T01:58:32.480Z,40.03
2023-03-01T01:59:38.779Z,37.22
2023-03-01T02:00:41.950Z,32.25
2023-03-01T02:01:44.926Z,36.78
2023-03-01T02:02:51.068Z,33.97
2023-03-01T02:03:53.348Z,43.30
2023-03-01T02:05:19.696Z,41.83
2023-03-01T02:06:47.584Z,36.15
2023-03-01T02:07:52.332Z,37.55
2023-03-01T02:08:56.804Z,33.03
2023-03-01T02:10:00.170Z,40.85
2023-03-01T02:11:06.298Z,45.53
2023-03-01T02:12:12.947Z,33.35
2023-03-01T02:13:15.921Z,33.70
2023-03-01T02:14:19.124Z,35.25
2023-03-01T02:15:21.392Z,35.45
2023-03-01T02:16:24.166Z,33.72
2023-03-01T02:17:29.465Z,33.53
2023-03-01T02:18:34.027Z,36.30
2023-03-01T02:20:13.746Z,43.55
2023-03-01T02:21:43.449Z,37.22
2023-03-01T02:22:50.996Z,38.22
2023-03-01T02:23:56.976Z,48.72
2023-03-01T02:25:07.132Z,34.45
2023-03-01T02:26:35.760Z,39.75
2023-03-01T02:28:10.929Z,37.22
2023-03-01T02:29:12.840Z,34.90
2023-03-01T02:30:14.753Z,38.50
2023-03-01T02:31:42.645Z,38.45
2023-03-01T02:32:49.119Z,34.80
2023-03-01T02:33:54.193Z,37.55
2023-03-01T02:34:57.893Z,38.78
2023-03-01T02:36:05.545Z,36.60
2023-03-01T02:37:23.577Z,35.35
2023-03-01T02:38:26.582Z,37.95
2023-03-01T02:39:43.464Z,48.10
2023-03-01T02:40:45.814Z,40.75
2023-03-01T02:41:55.140Z,39.63
2023-03-01T02:43:00.587Z,43.60
2023-03-01T02:44:03.344Z,38.20
2023-03-01T02:45:07.864Z,36.72
2023-03-01T02:46:20.007Z,41.72
2023-03-01T02:47:25.982Z,39.17
2023-03-01T02:48:32.305Z,38.85
2023-03-01T02:49:37.251Z,38.05
2023-03-01T02:50:55.271Z,42.67
2023-03-01T02:52:15.610Z,34.55
2023-03-01T02:53:29.979Z,37.28
2023-03-01T02:54:43.770Z,40.45
2023-03-01T02:55:46.200Z,44.38
2023-03-01T02:56:53.292Z,49.08
2023-03-01T02:57:58.003Z,40.60
2023-03-01T02:59:02.194Z,39.45
2023-03-01T03:00:21.217Z,38.38
2023-03-01T03:01:25.426Z,40.85
2023-03-01T03:02:40.068Z,41.70
2023-03-01T03:03:44.544Z,36.95
2023-03-01T03:04:47.249Z,39.35
2023-03-01T03:05:52.000Z,37.72
2023-03-01T03:06:55.838Z,38.22
2023-03-01T03:08:04.361Z,34.70
2023-03-01T03:09:06.713Z,34.47
2023-03-01T03:10:17.508Z,37.40
2023-03-01T03:11:22.121Z,37.42
2023-03-01T03:12:26.106Z,35.00
2023-03-01T03:13:30.753Z,39.33
2023-03-01T03:14:36.047Z,39.53
2023-03-01T03:15:40.922Z,42.65
2023-03-01T03:16:50.507Z,42.53
2023-03-01T03:17:57.136Z,38.67
2023-03-01T03:19:06.103Z,38.55
2023-03-01T03:20:13.523Z,38.10
2023-03-01T03:21:16.309Z,39.72
2023-03-01T03:22:20.093Z,39.10
2023-03-01T03:23:28.562Z,36.65
2023-03-01T03:24:39.316Z,38.10
2023-03-01T03:25:42.133Z,41.45
2023-03-01T03:26:45.961Z,38.33
2023-03-01T03:27:54.209Z,39.33
2023-03-01T03:28:55.990Z,41.67
2023-03-01T03:30:00.558Z,40.13
2023-03-01T03:31:06.410Z,37.80
2023-03-01T03:32:10.049Z,48.88
2023-03-01T03:33:13.925Z,40.22
2023-03-01T03:34:21.687Z,41.35
2023-03-01T03:35:32.425Z,40.05
2023-03-01T03:36:35.876Z,37.88
2023-03-01T03:38:02.456Z,38.65
2023-03-01T03:39:04.429Z,35.25
2023-03-01T03:40:16.799Z,41.28
2023-03-01T03:41:21.398Z,38.63
2023-03-01T03:42:23.691Z,40.17
2023-03-01T03:43:27.598Z,36.00
2023-03-01T03:44:39.378Z,36.60
2023-03-01T03:45:49.112Z,38.20
2023-03-01T03:46:53.230Z,38.75
2023-03-01T03:47:57.027Z,38.30
2023-03-01T03:48:59.156Z,39.75
2023-03-01T03:50:02.284Z,37.25
2023-03-01T03:51:06.872Z,38.95
2023-03-01T03:52:14.753Z,39.53
2023-03-01T03:53:16.989Z,36.25
2023-03-01T03:54:20.317Z,40.35
2023-03-01T03:55:22.887Z,46.28
2023-03-01T03:56:28.607Z,41.85
2023-03-01T03:57:30.961Z,38.38
2023-03-01T03:58:34.709Z,36.58
2023-03-01T03:59:36.550Z,43.60
2023-03-01T04:00:42.797Z,39.70
2023-03-01T04:01:46.278Z,41.80
2023-03-01T04:02:49.817Z,37.92
2023-03-01T04:03:55.617Z,43.15
2023-03-01T04:04:58.531Z,42.88
2023-03-01T04:06:02.062Z,43.08
2023-03-01T04:07:04.315Z,40.58
2023-03-01T04:08:08.812Z,44.10
2023-03-01T04:09:10.930Z,42.97
2023-03-01T04:10:17.762Z,36.85
2023-03-01T04:11:29.889Z,38.85
2023-03-01T04:12:31.969Z,42.90
2023-03-01T04:13:33.845Z,43.47
2023-03-01T04:14:37.485Z,40.28
2023-03-01T04:15:40.279Z,42.83
2023-03-01T04:16:43.958Z,35.72
2023-03-01T04:17:48.306Z,42.45
2023-03-01T04:18:50.271Z,41.25
2023-03-01T04:19:53.241Z,34.88
2023-03-01T04:20:56.748Z,34.50
2023-03-01T04:21:58.643Z,41.40
2023-03-01T04:23:14.505Z,38.50
2023-03-01T04:24:17.927Z,39.45
2023-03-01T04:25:21.056Z,39.25
2023-03-01T04:26:22.976Z,37.55
2023-03-01T04:27:25.095Z,41.20
2023-03-01T04:28:37.857Z,41.95
2023-03-01T04:29:42.048Z,40.67
2023-03-01T04:30:46.699Z,42.00
2023-03-01T04:31:55.156Z,44.38
2023-03-01T04:33:01.771Z,44.35
2023-03-01T04:34:04.117Z,46.63
2023-03-01T04:35:06.139Z,40.15
2023-03-01T04:36:10.705Z,40.78
2023-03-01T04:37:12.716Z,43.45
2023-03-01T04:38:19.344Z,46.50
2023-03-01T04:39:38.500Z,45.47
2023-03-01T04:40:43.571Z,46.35
2023-03-01T04:41:47.957Z,45.92
2023-03-01T04:42:52.257Z,46.17
2023-03-01T04:43:54.117Z,44.83
2023-03-01T04:44:57.886Z,44.92
2023-03-01T04:46:09.528Z,42.05
2023-03-01T04:47:18.195Z,46.25
2023-03-01T04:48:28.117Z,46.42
2023-03-01T04:49:30.357Z,44.85
2023-03-01T04:50:33.714Z,44.55
2023-03-01T04:51:36.749Z,46.03
2023-03-01T04:52:42.154Z,44.50
2023-03-01T04:53:46.400Z,46.95
2023-03-01T04:54:50.077Z,46.58
2023-03-01T04:55:53.040Z,47.42
2023-03-01T04:56:56.403Z,56.67
2023-03-01T04:58:00.698Z,48.92
2023-03-01T04:59:07.713Z,39.25
2023-03-01T05:00:21.693Z,43.72
2023-03-01T05:01:24.750Z,50.35
2023-03-01T05:02:26.868Z,41.90
2023-03-01T05:03:29.571Z,45.72
2023-03-01T05:04:32.173Z,43.17
2023-03-01T05:05:40.352Z,42.00
2023-03-01T05:06:42.373Z,39.80
2023-03-01T05:07:44.429Z,43.40
2023-03-01T05:08:46.793Z,46.05
2023-03-01T05:09:49.574Z,46.50
2023-03-01T05:10:54.116Z,45.55
2023-03-01T05:11:58.905Z,41.05
2023-03-01T05:13:01.381Z,50.15
2023-03-01T05:14:05.221Z,45.03
2023-03-01T05:15:08.178Z,42.60
2023-03-01T05:16:13.085Z,41.15
2023-03-01T05:17:15.132Z,58.72
2023-03-01T05:18:17.273Z,54.97
2023-03-01T05:19:23.789Z,48.67
2023-03-01T05:20:28.666Z,44.00
2023-03-01T05:21:30.315Z,64.50
2023-03-01T05:22:32.285Z,49.85
2023-03-01T05:23:37.777Z,45.55
2023-03-01T05:24:39.989Z,47.97
2023-03-01T05:25:41.965Z,43.03
2023-03-01T05:26:48.304Z,44.05
2023-03-01T05:27:50.026Z,44.13
2023-03-01T05:28:52.907Z,43.92
2023-03-01T05:29:54.964Z,45.95
2023-03-01T05:30:58.923Z,47.05
2023-03-01T05:32:02.475Z,45.35
2023-03-01T05:33:14.644Z,50.10
2023-03-01T05:34:17.108Z,49.05
2023-03-01T05:35:19.241Z,47.20
2023-03-01T05:36:21.270Z,51.35
2023-03-01T05:37:23.249Z,50.88
2023-03-01T05:38:27.639Z,45.28
2023-03-01T05:39:30.830Z,45.47
2023-03-01T05:40:34.942Z,44.75
2023-03-01T05:41:38.677Z,44.88
2023-03-01T05:42:42.550Z,44.78
2023-03-01T05:43:48.366Z,47.22
2023-03-01T05:44:51.847Z,48.83
2023-03-01T05:45:54.815Z,42.03
2023-03-01T05:46:58.019Z,41.50
2023-03-01T05:48:00.892Z,41.50
2023-03-01T05:49:03.663Z,48.45
2023-03-01T05:50:09.700Z,48.75
2023-03-01T05:51:13.418Z,44.65
2023-03-01T05:52:16.020Z,39.92
2023-03-01T05:53:25.390Z,44.50
2023-03-01T05:54:28.304Z,50.08
2023-03-01T05:55:32.230Z,49.35
2023-03-01T05:56:36.806Z,44.30
2023-03-01T05:57:39.026Z,49.15
2023-03-01T05:58:41.026Z,113.63
2023-03-01T05:59:42.738Z,73.35
2023-03-01T06:00:47.256Z,107.07
2023-03-01T06:01:50.351Z,60.28
2023-03-01T06:02:52.969Z,54.38
2023-03-01T06:03:55.139Z,44.65
2023-03-01T06:04:57.571Z,45.25
2023-03-01T06:06:02.532Z,50.72
2023-03-01T06:07:04.932Z,46.33
2023-03-01T06:08:08.198Z,43.55
2023-03-01T06:09:10.895Z,48.35
2023-03-01T06:10:14.367Z,50.55
2023-03-01T06:11:16.724Z,45.70
2023-03-01T06:12:20.204Z,43.25
2023-03-01T06:13:23.987Z,49.60
2023-03-01T06:14:26.170Z,42.80
2023-03-01T06:15:32.362Z,47.75
2023-03-01T06:16:35.033Z,46.28
2023-03-01T06:17:39.526Z,50.63
2023-03-01T06:18:43.258Z,44.10
2023-03-01T06:19:46.518Z,46.50
2023-03-01T06:20:55.719Z,44.83
2023-03-01T06:21:59.159Z,48.67
2023-03-01T06:23:01.531Z,44.20
2023-03-01T06:24:03.582Z,41.95
2023-03-01T06:25:07.245Z,39.03
2023-03-01T06:26:09.798Z,51.65
2023-03-01T06:27:11.683Z,41.83
2023-03-01T06:28:14.077Z,39.63
2023-03-01T06:29:16.341Z,47.15
2023-03-01T06:30:21.935Z,47.17
2023-03-01T06:31:24.273Z,41.50
2023-03-01T06:32:27.250Z,40.15
2023-03-01T06:33:29.941Z,46.55
2023-03-01T06:34:32.752Z,39.20
2023-03-01T06:35:38.141Z,40.05
2023-03-01T06:36:41.999Z,46.00
2023-03-01T06:37:45.131Z,43.75
2023-03-01T06:38:47.329Z,40.55
2023-03-01T06:39:52.331Z,48.13
2023-03-01T06:40:58.369Z,41.05
2023-03-01T06:42:03.872Z,41.95
2023-03-01T06:43:07.464Z,42.92
2023-03-01T06:44:09.506Z,48.42
2023-03-01T06:45:12.214Z,40.97
2023-03-01T06:46:15.045Z,47.38
2023-03-01T06:47:16.898Z,38.17
2023-03-01T06:48:19.435Z,39.67
2023-03-01T06:49:22.605Z,42.70
2023-03-01T06:50:25.063Z,40.65
2023-03-01T06:51:27.037Z,42.90
2023-03-01T06:52:29.228Z,43.10
2023-03-01T06:53:31.083Z,38.90
2023-03-01T06:54:32.804Z,41.55
2023-03-01T06:55:34.934Z,40.13
2023-03-01T06:56:38.312Z,41.80
2023-03-01T06:57:41.911Z,40.88
2023-03-01T06:58:44.196Z,40.20
2023-03-01T06:59:46.354Z,43.78
2023-03-01T07:00:48.746Z,39.28
2023-03-01T07:01:50.565Z,41.08
2023-03-01T07:02:52.769Z,41.35
2023-03-01T07:03:55.120Z,41.60
2023-03-01T07:04:57.760Z,37.55
2023-03-01T07:06:00.222Z,40.50
2023-03-01T07:07:02.545Z,43.05
2023-03-01T07:08:04.598Z,44.97
2023-03-01T07:09:06.896Z,38.80
2023-03-01T07:10:09.946Z,40.30
2023-03-01T07:11:12.431Z,37.20
2023-03-01T07:12:16.837Z,37.78
2023-03-01T07:13:18.733Z,37.47
2023-03-01T07:14:20.889Z,38.80
2023-03-01T07:15:26.259Z,42.30
2023-03-01T07:16:28.400Z,42.85
2023-03-01T07:17:30.560Z,41.40
2023-03-01T07:18:32.271Z,39.28
2023-03-01T07:19:34.397Z,39.60
2023-03-01T07:20:36.494Z,40.63
2023-03-01T07:21:40.505Z,40.58
2023-03-01T07:22:45.735Z,33.78
2023-03-01T07:23:52.260Z,38.90
2023-03-01T07:24:53.995Z,40.10
2023-03-01T07:25:56.080Z,38.88
2023-03-01T07:26:57.856Z,39.03
2023-03-01T07:28:00.862Z,39.53
2023-03-01T07:29:04.831Z,35.72
2023-03-01T07:30:09.669Z,37.55
2023-03-01T07:31:11.343Z,33.85
2023-03-01T07:32:13.299Z,31.45
2023-03-01T07:33:15.018Z,36.40
2023-03-01T07:34:16.970Z,32.15
2023-03-01T07:35:22.221Z,32.97
2023-03-01T07:36:25.846Z,29.83
2023-03-01T07:37:30.967Z,27.92
2023-03-01T07:38:37.689Z,26.70
2023-03-01T07:39:43.213Z,27.30
2023-03-01T07:40:47.866Z,36.20
2023-03-01T07:41:50.411Z,28.02
2023-03-01T07:42:58.948Z,31.98
2023-03-01T07:44:00.713Z,26.80
2023-03-01T07:45:07.322Z,27.13
2023-03-01T07:46:10.860Z,24.42
2023-03-01T07:47:12.781Z,30.33
2023-03-01T07:48:14.783Z,32.78
2023-03-01T07:49:17.493Z,28.60
2023-03-01T07:50:20.167Z,35.20
2023-03-01T07:51:22.317Z,28.90
2023-03-01T07:52:24.126Z,25.23
2023-03-01T07:53:26.527Z,28.17
2023-03-01T07:54:28.433Z,24.42
2023-03-01T07:55:30.426Z,26.35
2023-03-01T07:56:32.478Z,29.60
2023-03-01T07:57:34.163Z,31.50
2023-03-01T07:58:38.386Z,32.53
2023-03-01T07:59:40.469Z,29.95
2023-03-01T08:00:43.829Z,39.63
2023-03-01T08:01:46.178Z,29.70
2023-03-01T08:02:48.664Z,32.35
2023-03-01T08:03:56.900Z,29.85
2023-03-01T08:05:00.626Z,30.80
2023-03-01T08:06:04.373Z,30.15
2023-03-01T08:07:07.728Z,39.00
2023-03-01T08:08:09.823Z,30.40
2023-03-01T08:09:11.650Z,28.00
2023-03-01T08:10:14.022Z,27.75
2023-03-01T08:11:16.843Z,34.20
2023-03-01T08:12:18.808Z,27.00
2023-03-01T08:13:23.781Z,29.55
2023-03-01T08:14:25.611Z,31.45
2023-03-01T08:15:27.501Z,24.65
2023-03-01T08:16:30.512Z,29.42
2023-03-01T08:17:32.758Z,32.45
2023-03-01T08:18:35.982Z,24.98
2023-03-01T08:19:38.625Z,25.90
2023-03-01T08:20:40.371Z,26.05
2023-03-01T08:21:42.256Z,27.80
2023-03-01T08:22:46.318Z,31.40
2023-03-01T08:23:57.122Z,27.35
2023-03-01T08:25:04.050Z,24.60
2023-03-01T08:26:14.195Z,27.85
2023-03-01T08:28:09.518Z,28.10
2023-03-01T08:29:11.337Z,28.77
2023-03-01T08:30:17.445Z,29.73
2023-03-01T08:31:26.722Z,27.17
2023-03-01T08:32:28.661Z,26.90
2023-03-01T08:33:31.290Z,28.33
2023-03-01T08:34:36.575Z,26.08
2023-03-01T08:35:40.290Z,34.30
2023-03-01T08:36:47.700Z,28.60
2023-03-01T08:37:49.585Z,29.98
2023-03-01T08:38:52.496Z,29.70
2023-03-01T08:39:55.880Z,26.65
2023-03-01T08:41:01.335Z,28.58
2023-03-01T08:42:03.734Z,32.63
2023-03-01T08:43:06.221Z,28.13
2023-03-01T08:44:12.740Z,29.63
2023-03-01T08:45:19.224Z,28.10
2023-03-01T08:46:21.194Z,25.60
2023-03-01T08:47:23.470Z,28.25
2023-03-01T08:48:29.988Z,26.77
2023-03-01T08:49:33.854Z,26.23
2023-03-01T08:50:36.414Z,26.53
2023-03-01T08:51:41.965Z,28.17
2023-03-01T08:52:46.930Z,25.57
2023-03-01T08:53:56.098Z,25.70
2023-03-01T08:54:58.529Z,25.50
2023-03-01T08:56:05.374Z,28.37
2023-03-01T08:57:08.627Z,27.47
2023-03-01T08:58:10.411Z,27.93
2023-03-01T08:59:15.494Z,28.20
2023-03-01T09:00:19.572Z,25.33
2023-03-01T09:01:22.163Z,25.57
2023-03-01T09:02:24.885Z,26.73
2023-03-01T09:03:30.012Z,34.40
2023-03-01T09:04:32.364Z,25.87
2023-03-01T09:05:35.404Z,24.77
2023-03-01T09:06:37.945Z,28.37
2023-03-01T09:07:39.953Z,31.20
2023-03-01T09:08:47.721Z,23.43
2023-03-01T09:09:49.869Z,24.77
2023-03-01T09:10:52.289Z,28.73
2023-03-01T09:11:54.074Z,24.73
2023-03-01T09:12:56.674Z,27.13
2023-03-01T09:13:59.329Z,24.20
2023-03-01T09:15:02.522Z,22.47
2023-03-01T09:16:12.883Z,24.30
2023-03-01T09:17:16.099Z,24.93
2023-03-01T09:18:17.879Z,25.10
2023-03-01T09:19:20.548Z,27.60
2023-03-01T09:20:22.899Z,27.43
2023-03-01T09:21:38.949Z,21.87
2023-03-01T09:22:42.212Z,30.90
2023-03-01T09:23:46.731Z,23.50
2023-03-01T09:24:49.413Z,25.40
2023-03-01T09:25:51.562Z,28.17
2023-03-01T09:26:57.816Z,23.50
2023-03-01T09:27:59.378Z,25.00
2023-03-01T09:29:01.141Z,25.37
2023-03-01T09:30:04.351Z,33.80
2023-03-01T09:31:11.354Z,22.67
2023-03-01T09:32:16.773Z,24.30
2023-03-01T09:33:21.771Z,24.57
2023-03-01T09:34:24.945Z,29.00
2023-03-01T09:35:26.894Z,31.50
2023-03-01T09:36:30.158Z,25.40
2023-03-01T09:37:34.915Z,25.97
2023-03-01T09:38:40.442Z,23.60
2023-03-01T09:39:45.678Z,22.70
2023-03-01T09:40:49.357Z,25.50
2023-03-01T09:42:06.759Z,25.70
2023-03-01T09:43:20.272Z,22.63
2023-03-01T09:44:36.206Z,23.83
2023-03-01T09:45:46.039Z,25.13
2023-03-01T09:46:52.520Z,25.90
2023-03-01T09:47:56.904Z,23.87
2023-03-01T09:49:06.982Z,24.47
2023-03-01T09:50:19.832Z,22.27
2023-03-01T09:51:32.467Z,32.27
2023-03-01T09:52:50.293Z,27.60
2023-03-01T09:53:56.107Z,29.00
2023-03-01T09:55:00.385Z,23.80
2023-03-01T09:56:22.907Z,21.50
2023-03-01T09:57:54.729Z,21.67
2023-03-01T10:00:51.679Z,21.67
2023-03-01T10:02:13.421Z,24.00
2023-03-01T10:03:30.232Z,26.97
2023-03-01T10:04:47.986Z,25.87
2023-03-01T10:06:27.504Z,29.50
2023-03-01T10:08:08.009Z,25.53
2023-03-01T10:09:19.457Z,25.27
2023-03-01T10:10:44.608Z,25.60
2023-03-01T10:11:53.758Z,25.50
2023-03-01T10:12:57.425Z,29.70
2023-03-01T10:14:31.608Z,23.67
2023-03-01T10:15:43.969Z,23.50
2023-03-01T10:17:02.286Z,24.40
2023-03-01T10:18:20.069Z,24.73
2023-03-01T10:19:32.144Z,25.40
2023-03-01T10:21:18.437Z,29.20
2023-03-01T10:22:32.451Z,26.67
2023-03-01T10:23:38.221Z,25.20
2023-03-01T10:24:43.059Z,25.50
2023-03-01T10:26:22.426Z,29.23
2023-03-01T10:27:26.115Z,30.70
2023-03-01T10:28:50.644Z,30.17
2023-03-01T10:29:59.349Z,27.93
2023-03-01T10:31:02.125Z,31.00
2023-03-01T10:32:08.548Z,29.70
2023-03-01T10:33:23.127Z,29.53
2023-03-01T10:34:40.705Z,30.10
2023-03-01T10:35:43.624Z,34.37
2023-03-01T10:36:52.076Z,27.23
2023-03-01T10:38:04.479Z,29.23
2023-03-01T10:39:15.931Z,27.20
2023-03-01T10:40:23.338Z,31.67
2023-03-01T10:41:28.547Z,31.57
2023-03-01T10:42:36.624Z,28.60
2023-03-01T10:43:47.713Z,33.70
2023-03-01T10:44:51.387Z,33.50
2023-03-01T10:45:54.229Z,35.47
2023-03-01T10:47:03.978Z,34.00
2023-03-01T10:48:07.337Z,38.20
2023-03-01T10:49:22.256Z,32.70
2023-03-01T10:50:29.684Z,33.10
2023-03-01T10:51:35.643Z,31.50
2023-03-01T10:52:41.415Z,33.80
2023-03-01T10:53:50.664Z,34.87
2023-03-01T10:55:02.941Z,33.40
2023-03-01T10:56:12.116Z,29.70
2023-03-01T10:57:31.340Z,28.20
2023-03-01T10:58:38.887Z,29.83
2023-03-01T10:59:42.155Z,32.47
2023-03-01T11:00:55.217Z,32.87
2023-03-01T11:02:25.447Z,29.80
2023-03-01T11:03:39.990Z,29.97
2023-03-01T11:05:01.628Z,28.90
2023-03-01T11:06:06.008Z,31.20
2023-03-01T11:07:11.230Z,29.57
2023-03-01T11:08:34.391Z,40.53
2023-03-01T11:09:42.190Z,27.83
2023-03-01T11:10:47.675Z,35.30
2023-03-01T11:11:58.124Z,32.97
2023-03-01T11:13:20.729Z,30.83
2023-03-01T11:14:28.398Z,37.47
2023-03-01T11:15:31.915Z,27.70
2023-03-01T11:16:38.484Z,25.23
2023-03-01T11:17:53.869Z,38.53
2023-03-01T11:19:10.989Z,32.27
2023-03-01T11:20:17.549Z,30.27
2023-03-01T11:21:20.779Z,29.30
2023-03-01T11:22:27.177Z,30.93
2023-03-01T11:23:34.759Z,30.17
2023-03-01T11:24:45.091Z,26.53
2023-03-01T11:25:55.991Z,30.50
2023-03-01T11:27:01.457Z,36.47
2023-03-01T11:28:06.210Z,37.70
2023-03-01T11:29:22.660Z,28.90
2023-03-01T11:30:35.179Z,30.17
2023-03-01T11:31:56.765Z,28.13
2023-03-01T11:33:22.508Z,26.73
2023-03-01T11:35:06.789Z,30.80
2023-03-01T11:36:31.435Z,28.70
2023-03-01T11:37:57.463Z,32.60
2023-03-01T11:39:15.276Z,30.33
2023-03-01T11:40:23.221Z,24.07
2023-03-01T11:41:33.232Z,27.70
2023-03-01T11:42:56.076Z,37.43
2023-03-01T11:44:14.624Z,35.17
2023-03-01T11:45:18.303Z,39.50
2023-03-01T11:46:41.289Z,27.70
2023-03-01T11:48:21.724Z,29.17
2023-03-01T11:49:46.057Z,28.23
2023-03-01T11:50:54.480Z,29.03
2023-03-01T11:52:23.359Z,30.87
2023-03-01T11:53:46.093Z,27.93
2023-03-01T11:54:51.167Z,29.67
2023-03-01T11:56:18.672Z,32.53
2023-03-01T11:58:15.022Z,26.63
2023-03-01T11:59:57.111Z,36.40
2023-03-01T12:01:22.311Z,27.70
2023-03-01T12:02:53.887Z,28.73
2023-03-01T12:04:03.970Z,34.53
2023-03-01T12:05:40.973Z,30.43
2023-03-01T12:06:58.200Z,32.13
2023-03-01T12:08:27.742Z,28.37
2023-03-01T12:09:58.906Z,28.03
2023-03-01T12:11:40.688Z,29.03
2023-03-01T12:13:11.716Z,38.27
2023-03-01T12:14:30.498Z,32.40
2023-03-01T12:16:01.481Z,25.77
2023-03-01T12:17:29.723Z,32.13
2023-03-01T12:18:50.892Z,26.70
2023-03-01T12:20:20.044Z,26.57
2023-03-01T12:21:32.400Z,36.17
2023-03-01T12:22:44.369Z,26.50
2023-03-01T12:24:08.951Z,29.50
2023-03-01T12:25:22.775Z,31.40
2023-03-01T12:26:42.621Z,32.03
2023-03-01T12:28:11.048Z,26.37
2023-03-01T12:29:16.126Z,29.00
2023-03-01T12:30:31.272Z,26.23
2023-03-01T12:32:01.360Z,27.13
2023-03-01T12:33:24.990Z,25.53
2023-03-01T12:34:33.295Z,28.07
2023-03-01T12:35:43.514Z,27.03
2023-03-01T12:37:42.488Z,26.17
2023-03-01T12:39:01.142Z,29.47
2023-03-01T12:40:13.991Z,29.70
2023-03-01T12:41:45.423Z,28.70
2023-03-01T12:42:54.123Z,30.23
2023-03-01T12:43:56.315Z,27.60
2023-03-01T12:45:24.890Z,30.53
2023-03-01T12:46:55.519Z,27.90
2023-03-01T12:48:06.466Z,26.77
2023-03-01T12:49:30.911Z,26.57
2023-03-01T12:50:47.286Z,25.90
2023-03-01T12:52:17.042Z,25.83
2023-03-01T12:53:39.946Z,27.40
2023-03-01T12:54:42.874Z,29.17
2023-03-01T12:55:49.781Z,27.37
2023-03-01T12:56:54.620Z,25.87
2023-03-01T12:58:18.323Z,34.30
2023-03-01T12:59:21.386Z,30.60
2023-03-01T13:00:39.237Z,27.13
2023-03-01T13:02:16.160Z,30.30
2023-03-01T13:03:27.378Z,32.90
2023-03-01T13:05:07.006Z,28.30
2023-03-01T13:06:47.894Z,30.27
2023-03-01T13:08:04.187Z,26.30
2023-03-01T13:09:33.437Z,31.87
2023-03-01T13:10:42.948Z,29.90
2023-03-01T13:11:45.059Z,28.07
2023-03-01T13:12:49.949Z,30.00
2023-03-01T13:14:24.515Z,25.17
2023-03-01T13:15:48.796Z,27.13
2023-03-01T13:16:56.115Z,34.53
2023-03-01T13:18:01.688Z,26.30
2023-03-01T13:19:16.608Z,29.90
2023-03-01T13:20:21.518Z,28.40
2023-03-01T13:21:40.671Z,32.00
2023-03-01T13:22:54.345Z,29.97
2023-03-01T13:23:58.365Z,28.10
2023-03-01T13:25:18.429Z,34.90
2023-03-01T13:26:23.908Z,43.43
2023-03-01T13:27:32.692Z,27.27
2023-03-01T13:28:50.152Z,28.13
2023-03-01T13:30:07.133Z,30.03
2023-03-01T13:31:30.869Z,29.20
2023-03-01T13:32:44.654Z,26.40
2023-03-01T13:33:56.471Z,34.03
2023-03-01T13:35:00.839Z,30.30
2023-03-01T13:36:06.281Z,47.57
2023-03-01T13:37:19.627Z,33.53
2023-03-01T13:38:48.444Z,38.03
2023-03-01T13:39:51.675Z,30.53
2023-03-01T13:41:01.769Z,30.10
2023-03-01T13:42:10.578Z,31.80
2023-03-01T13:43:38.608Z,29.17
2023-03-01T13:44:45.044Z,33.63
2023-03-01T13:45:54.087Z,30.13
2023-03-01T13:47:08.214Z,26.97
2023-03-01T13:48:29.155Z,30.80
2023-03-01T13:49:46.600Z,27.43
2023-03-01T13:50:56.491Z,28.60
2023-03-01T13:51:59.604Z,32.63
2023-03-01T13:53:15.615Z,30.20
2023-03-01T13:54:39.862Z,27.03
2023-03-01T13:55:52.978Z,26.97
2023-03-01T13:56:56.552Z,29.93
2023-03-01T13:58:03.780Z,27.77
2023-03-01T13:59:21.105Z,29.20
2023-03-01T14:00:33.009Z,33.43
2023-03-01T14:01:41.672Z,26.20
2023-03-01T14:02:56.001Z,27.87
2023-03-01T14:04:19.410Z,26.70
2023-03-01T14:05:25.001Z,27.23
2023-03-01T14:06:33.577Z,33.33
2023-03-01T14:07:38.000Z,32.07
2023-03-01T14:08:41.463Z,33.10
2023-03-01T14:09:46.759Z,32.33
2023-03-01T14:11:09.160Z,28.60
2023-03-01T14:12:23.413Z,31.20
2023-03-01T14:13:28.403Z,44.13
2023-03-01T14:14:48.488Z,28.50
2023-03-01T14:16:34.531Z,32.37
2023-03-01T14:17:56.730Z,34.43
2023-03-01T14:19:33.510Z,33.07
2023-03-01T14:20:47.097Z,32.33
2023-03-01T14:21:50.762Z,32.00
2023-03-01T14:23:01.297Z,32.53
2023-03-01T14:24:04.705Z,30.40
2023-03-01T14:25:26.067Z,34.50
2023-03-01T14:26:33.076Z,27.10
2023-03-01T14:27:41.078Z,30.77
2023-03-01T14:28:45.020Z,28.13
2023-03-01T14:30:02.885Z,36.60
2023-03-01T14:31:05.061Z,27.77
2023-03-01T14:32:18.448Z,28.80
2023-03-01T14:33:45.382Z,30.70
2023-03-01T14:34:52.566Z,30.43
2023-03-01T14:36:08.768Z,28.73
2023-03-01T14:37:23.589Z,32.00
2023-03-01T14:38:46.691Z,32.03
2023-03-01T14:39:50.129Z,29.57
2023-03-01T14:41:01.969Z,34.50
2023-03-01T14:42:15.423Z,29.57
2023-03-01T14:43:31.086Z,32.67
2023-03-01T14:44:38.720Z,31.27
2023-03-01T14:45:40.851Z,32.40
2023-03-01T14:46:47.300Z,30.07